Muscat, Oman

7:45 PM GST on June 03, 2015 (GMT +0400)
Aziba, Muscat | | Change Station
CLOSE
Current Station
Personal Weather Station
Location: Muscat, MUSCAT GOVERNORATE
Elevation: 10 ft
Nearby Weather Stations

Elev 10 ft 23.61 °N, 58.36 °E | Updated 9 seconds ago

Clear
Clear
97.9 °F
Feels Like 106 °F
N
0.0
Wind Variable Wind from SW
Gusts 0.0 mph

Today
High -- | Low -- °F
--% Chance of Precip.
Yesterday
High -- | Low -- °F
Precip. -- in
5:19 AM 6:50 PM
Full, 99% visible
Pressure 29.50 in
Visibility 4.3 miles
Clouds
Heat Index 106 °F
Dew Point 71 °F
Humidity 42%
Rainfall 0.00 in
Snow Depth Not available.
UV 0.0 out of 12
Pollen Not available.
Air Quality Not available.
Flu Activity Not available.
METAR OOMS 031450Z 05003KT 7000 NSC 43/01 Q0999 NOSIG

More Conditions Fewer Conditions

Pressure 29.50 in
Visibility 4.3 miles
Clouds
Heat Index 106 °F
Dew Point 71 °F
Humidity 42%
Rainfall 0.00 in
Snow Depth Not available.
UV 0.0 out of 12
Pollen Not available.
Air Quality Not available.
Flu Activity Not available.
METAR OOMS 031450Z 05003KT 7000 NSC 43/01 Q0999 NOSIG

More Conditions Fewer Conditions

10-Day Weather Forecast

×

Almanac

Astronomy

Jun. 03, 2015 Rise Set
Actual Time
Civil Twilight
Nautical Twilight
Astronomical Twilight
Moon
Length of Visible Light
Length of Day
Tomorrow will be .
, % of the Moon is Illuminated

Today's Extremes

Country Highs Country Lows

Community

WunderPhotos

Upload Photos

1,826,241 photos uploaded!

WunderBlogs® & News

Nearby

Air Quality

  Air Quality AQ Index Pollutant
Not available.

Snow Depth

Station Depth Elevation

Earthquake Activity

City Distance Mag. Time & Date
Minimum magnitude displayed is 2.5.

Coastal Water Temperatures

Place Temperature

Stations

Nearby Weather Stations

Station Location Temp. Windchill Dew Point Humidity Wind Precip. Elev Updated Type